sensor_id;sensor_type;location;lat;lon;timestamp;pressure;altitude;pressure_sealevel;temperature;humidity
23281;BME280;11809;56.390;-3.266;2023-01-31T00:01:47;100850.56;;;14.73;53.83
23281;BME280;11809;56.390;-3.266;2023-01-31T00:04:14;100851.56;;;14.70;54.11
23281;BME280;11809;56.390;-3.266;2023-01-31T00:06:42;100858.75;;;14.68;54.19
23281;BME280;11809;56.390;-3.266;2023-01-31T00:09:11;100857.03;;;14.67;54.08
23281;BME280;11809;56.390;-3.266;2023-01-31T00:11:38;100837.75;;;14.65;54.06
23281;BME280;11809;56.390;-3.266;2023-01-31T00:14:06;100824.59;;;14.64;54.18
23281;BME280;11809;56.390;-3.266;2023-01-31T00:16:33;100815.22;;;14.58;54.34
23281;BME280;11809;56.390;-3.266;2023-01-31T00:19:01;100825.78;;;14.58;54.08
23281;BME280;11809;56.390;-3.266;2023-01-31T00:21:29;100802.91;;;14.57;54.46
23281;BME280;11809;56.390;-3.266;2023-01-31T00:23:57;100792.50;;;14.54;54.69
23281;BME280;11809;56.390;-3.266;2023-01-31T00:26:30;100761.63;;;14.54;54.64
23281;BME280;11809;56.390;-3.266;2023-01-31T00:29:00;100783.81;;;14.52;54.76
23281;BME280;11809;56.390;-3.266;2023-01-31T00:31:29;100786.44;;;14.52;54.69
23281;BME280;11809;56.390;-3.266;2023-01-31T00:33:57;100775.09;;;14.50;54.78
23281;BME280;11809;56.390;-3.266;2023-01-31T00:36:27;100782.19;;;14.49;54.65
23281;BME280;11809;56.390;-3.266;2023-01-31T00:38:55;100768.97;;;14.49;54.54
23281;BME280;11809;56.390;-3.266;2023-01-31T00:41:24;100763.81;;;14.46;54.81
23281;BME280;11809;56.390;-3.266;2023-01-31T00:43:51;100770.84;;;14.47;54.88
23281;BME280;11809;56.390;-3.266;2023-01-31T00:46:19;100763.81;;;14.46;54.95
23281;BME280;11809;56.390;-3.266;2023-01-31T00:48:47;100759.41;;;14.47;54.81
23281;BME280;11809;56.390;-3.266;2023-01-31T00:51:18;100760.41;;;14.44;54.92
23281;BME280;11809;56.390;-3.266;2023-01-31T00:53:46;100760.41;;;14.44;54.99
23281;BME280;11809;56.390;-3.266;2023-01-31T00:56:20;100755.13;;;14.44;55.15
23281;BME280;11809;56.390;-3.266;2023-01-31T00:58:49;100737.53;;;14.43;55.04
23281;BME280;11809;56.390;-3.266;2023-01-31T01:01:25;100733.13;;;14.44;55.06
23281;BME280;11809;56.390;-3.266;2023-01-31T01:03:54;100733.28;;;14.41;55.27
23281;BME280;11809;56.390;-3.266;2023-01-31T01:06:21;100717.41;;;14.41;55.24
23281;BME280;11809;56.390;-3.266;2023-01-31T01:08:48;100702.47;;;14.40;55.13
23281;BME280;11809;56.390;-3.266;2023-01-31T01:11:17;100711.28;;;14.40;55.40
23281;BME280;11809;56.390;-3.266;2023-01-31T01:13:44;100716.56;;;14.40;55.30
23281;BME280;11809;56.390;-3.266;2023-01-31T01:16:17;100705.13;;;14.40;55.28
23281;BME280;11809;56.390;-3.266;2023-01-31T01:18:45;100700.84;;;14.37;55.51
23281;BME280;11809;56.390;-3.266;2023-01-31T01:21:16;100700.78;;;14.39;55.50
23281;BME280;11809;56.390;-3.266;2023-01-31T01:23:45;100704.28;;;14.39;55.65
23281;BME280;11809;56.390;-3.266;2023-01-31T01:26:26;100698.16;;;14.39;55.61
23281;BME280;11809;56.390;-3.266;2023-01-31T01:28:56;100705.22;;;14.38;55.54
23281;BME280;11809;56.390;-3.266;2023-01-31T01:31:23;100707.97;;;14.37;55.51
23281;BME280;11809;56.390;-3.266;2023-01-31T01:34:03;100710.59;;;14.37;55.52
23281;BME280;11809;56.390;-3.266;2023-01-31T01:36:34;100707.97;;;14.37;55.55
23281;BME280;11809;56.390;-3.266;2023-01-31T01:39:03;100694.75;;;14.37;55.81
23281;BME280;11809;56.390;-3.266;2023-01-31T01:41:30;100696.44;;;14.38;55.83
23281;BME280;11809;56.390;-3.266;2023-01-31T01:44:00;100701.72;;;14.38;55.86
23281;BME280;11809;56.390;-3.266;2023-01-31T01:46:40;100689.44;;;14.37;55.91
23281;BME280;11809;56.390;-3.266;2023-01-31T01:49:28;100683.38;;;14.35;56.00
23281;BME280;11809;56.390;-3.266;2023-01-31T01:51:59;100694.75;;;14.37;55.92
23281;BME280;11809;56.390;-3.266;2023-01-31T01:54:32;100683.31;;;14.36;55.92
23281;BME280;11809;56.390;-3.266;2023-01-31T01:57:02;100688.59;;;14.36;56.12
23281;BME280;11809;56.390;-3.266;2023-01-31T01:59:36;100686.03;;;14.35;56.15
23281;BME280;11809;56.390;-3.266;2023-01-31T02:02:04;100690.28;;;14.37;56.03
23281;BME280;11809;56.390;-3.266;2023-01-31T02:04:33;100699.94;;;14.38;56.09
23281;BME280;11809;56.390;-3.266;2023-01-31T02:07:02;100692.00;;;14.38;56.30
23281;BME280;11809;56.390;-3.266;2023-01-31T02:10:06;100683.16;;;14.39;56.06
23281;BME280;11809;56.390;-3.266;2023-01-31T02:12:31;100684.06;;;14.38;56.09
23281;BME280;11809;56.390;-3.266;2023-01-31T02:14:59;100677.00;;;14.39;55.93
23281;BME280;11809;56.390;-3.266;2023-01-31T02:17:26;100672.56;;;14.39;55.96
23281;BME280;11809;56.390;-3.266;2023-01-31T02:34:14;100674.94;;;14.44;56.35
23281;BME280;11809;56.390;-3.266;2023-01-31T02:45:12;100671.44;;;14.43;56.39
23281;BME280;11809;56.390;-3.266;2023-01-31T02:48:18;100673.22;;;14.43;56.33
23281;BME280;11809;56.390;-3.266;2023-01-31T02:50:56;100690.81;;;14.44;56.26
23281;BME280;11809;56.390;-3.266;2023-01-31T02:53:36;100694.22;;;14.46;56.24
23281;BME280;11809;56.390;-3.266;2023-01-31T02:56:13;100701.22;;;14.47;56.53
23281;BME280;11809;56.390;-3.266;2023-01-31T02:59:05;100699.44;;;14.47;56.21
23281;BME280;11809;56.390;-3.266;2023-01-31T03:01:45;100690.66;;;14.47;56.36
23281;BME280;11809;56.390;-3.266;2023-01-31T03:04:14;100689.69;;;14.48;56.45
23281;BME280;11809;56.390;-3.266;2023-01-31T03:07:12;100684.41;;;14.48;56.49
23281;BME280;11809;56.390;-3.266;2023-01-31T03:15:39;100692.16;;;14.51;56.52
23281;BME280;11809;56.390;-3.266;2023-01-31T03:18:58;100685.19;;;14.50;56.45
23281;BME280;11809;56.390;-3.266;2023-01-31T03:21:32;100669.22;;;14.51;56.45
23281;BME280;11809;56.390;-3.266;2023-01-31T03:24:04;100658.75;;;14.50;56.44
23281;BME280;11809;56.390;-3.266;2023-01-31T03:26:32;100652.44;;;14.52;56.54
23281;BME280;11809;56.390;-3.266;2023-01-31T03:29:01;100648.94;;;14.52;56.44
23281;BME280;11809;56.390;-3.266;2023-01-31T03:31:35;100647.16;;;14.52;56.34
23281;BME280;11809;56.390;-3.266;2023-01-31T03:34:06;100656.75;;;14.53;56.53
23281;BME280;11809;56.390;-3.266;2023-01-31T03:37:02;100644.41;;;14.54;56.47
23281;BME280;11809;56.390;-3.266;2023-01-31T03:39:41;100657.63;;;14.54;56.46
23281;BME280;11809;56.390;-3.266;2023-01-31T03:42:24;100659.34;;;14.55;56.63
23281;BME280;11809;56.390;-3.266;2023-01-31T03:45:10;100653.25;;;14.53;56.73
23281;BME280;11809;56.390;-3.266;2023-01-31T03:47:43;100648.75;;;14.55;56.55
23281;BME280;11809;56.390;-3.266;2023-01-31T03:50:35;100652.34;;;14.54;56.81
23281;BME280;11809;56.390;-3.266;2023-01-31T03:53:17;100636.28;;;14.57;56.56
23281;BME280;11809;56.390;-3.266;2023-01-31T03:55:51;100632.72;;;14.58;56.72
23281;BME280;11809;56.390;-3.266;2023-01-31T03:58:25;100628.38;;;14.57;56.52
23281;BME280;11809;56.390;-3.266;2023-01-31T04:00:56;100637.06;;;14.59;56.64
23281;BME280;11809;56.390;-3.266;2023-01-31T04:03:44;100630.25;;;14.55;56.53
23281;BME280;11809;56.390;-3.266;2023-01-31T04:06:12;100637.91;;;14.60;56.59
23281;BME280;11809;56.390;-3.266;2023-01-31T04:08:40;100622.91;;;14.60;56.79
23281;BME280;11809;56.390;-3.266;2023-01-31T04:11:10;100612.31;;;14.60;56.54
23281;BME280;11809;56.390;-3.266;2023-01-31T04:13:39;100603.53;;;14.60;56.85
23281;BME280;11809;56.390;-3.266;2023-01-31T04:16:06;100589.44;;;14.59;56.53
23281;BME280;11809;56.390;-3.266;2023-01-31T04:18:33;100598.13;;;14.61;56.46
23281;BME280;11809;56.390;-3.266;2023-01-31T04:21:04;100606.94;;;14.62;56.47
23281;BME280;11809;56.390;-3.266;2023-01-31T04:23:31;100602.50;;;14.62;56.60
23281;BME280;11809;56.390;-3.266;2023-01-31T04:25:57;100610.44;;;14.62;56.54
23281;BME280;11809;56.390;-3.266;2023-01-31T04:28:24;100605.16;;;14.62;56.55
23281;BME280;11809;56.390;-3.266;2023-01-31T04:30:55;100592.84;;;14.61;56.69
23281;BME280;11809;56.390;-3.266;2023-01-31T04:33:23;100575.13;;;14.63;56.71
23281;BME280;11809;56.390;-3.266;2023-01-31T04:35:50;100597.16;;;14.64;56.70
23281;BME280;11809;56.390;-3.266;2023-01-31T04:38:17;100606.88;;;14.63;56.62
23281;BME280;11809;56.390;-3.266;2023-01-31T04:40:44;100601.56;;;14.63;56.76
23281;BME280;11809;56.390;-3.266;2023-01-31T04:43:11;100593.53;;;14.65;56.74
23281;BME280;11809;56.390;-3.266;2023-01-31T04:45:38;100579.44;;;14.64;56.58
23281;BME280;11809;56.390;-3.266;2023-01-31T04:48:05;100562.75;;;14.64;56.47
23281;BME280;11809;56.390;-3.266;2023-01-31T04:50:33;100576.91;;;14.63;56.52
23281;BME280;11809;56.390;-3.266;2023-01-31T04:52:59;100580.31;;;14.65;56.89
23281;BME280;11809;56.390;-3.266;2023-01-31T04:55:26;100561.72;;;14.66;56.67
23281;BME280;11809;56.390;-3.266;2023-01-31T04:57:53;100578.53;;;14.65;56.58
23281;BME280;11809;56.390;-3.266;2023-01-31T05:00:20;100575.88;;;14.65;56.63
23281;BME280;11809;56.390;-3.266;2023-01-31T05:02:47;100578.53;;;14.65;56.35
23281;BME280;11809;56.390;-3.266;2023-01-31T05:05:15;100576.75;;;14.66;56.59
23281;BME280;11809;56.390;-3.266;2023-01-31T05:07:43;100576.81;;;14.64;56.67
23281;BME280;11809;56.390;-3.266;2023-01-31T05:10:11;100560.00;;;14.65;56.57
23281;BME280;11809;56.390;-3.266;2023-01-31T05:12:38;100575.03;;;14.65;56.64
23281;BME280;11809;56.390;-3.266;2023-01-31T05:15:05;100582.09;;;14.64;56.37
23281;BME280;11809;56.390;-3.266;2023-01-31T05:17:37;100604.97;;;14.65;56.51
23281;BME280;11809;56.390;-3.266;2023-01-31T05:20:04;100614.53;;;14.68;56.59
23281;BME280;11809;56.390;-3.266;2023-01-31T05:22:31;100599.59;;;14.67;56.49
23281;BME280;11809;56.390;-3.266;2023-01-31T05:24:59;100583.66;;;14.68;56.43
23281;BME280;11809;56.390;-3.266;2023-01-31T05:27:26;100595.09;;;14.69;56.59
23281;BME280;11809;56.390;-3.266;2023-01-31T05:29:53;100606.69;;;14.66;56.56
23281;BME280;11809;56.390;-3.266;2023-01-31T05:32:20;100617.28;;;14.66;56.74
23281;BME280;11809;56.390;-3.266;2023-01-31T05:34:47;100608.38;;;14.67;56.49
23281;BME280;11809;56.390;-3.266;2023-01-31T05:37:14;100601.31;;;14.68;56.63
23281;BME280;11809;56.390;-3.266;2023-01-31T05:39:41;100599.69;;;14.65;56.31
23281;BME280;11809;56.390;-3.266;2023-01-31T05:42:07;100595.16;;;14.67;56.39
23281;BME280;11809;56.390;-3.266;2023-01-31T05:44:34;100585.44;;;14.68;56.53
23281;BME280;11809;56.390;-3.266;2023-01-31T05:47:02;100601.19;;;14.69;56.28
23281;BME280;11809;56.390;-3.266;2023-01-31T05:49:29;100592.44;;;14.69;56.49
23281;BME280;11809;56.390;-3.266;2023-01-31T05:52:00;100586.34;;;14.67;56.43
23281;BME280;11809;56.390;-3.266;2023-01-31T05:54:27;100602.16;;;14.68;56.33
23281;BME280;11809;56.390;-3.266;2023-01-31T05:56:54;100590.72;;;14.68;56.19
23281;BME280;11809;56.390;-3.266;2023-01-31T05:59:21;100575.72;;;14.68;56.29
23281;BME280;11809;56.390;-3.266;2023-01-31T06:01:48;100562.56;;;14.67;56.12
23281;BME280;11809;56.390;-3.266;2023-01-31T06:04:15;100571.28;;;14.69;56.16
23281;BME280;11809;56.390;-3.266;2023-01-31T06:06:42;100574.00;;;14.67;56.12
23281;BME280;11809;56.390;-3.266;2023-01-31T06:09:10;100565.19;;;14.67;56.04
23281;BME280;11809;56.390;-3.266;2023-01-31T06:11:37;100587.16;;;14.69;56.11
23281;BME280;11809;56.390;-3.266;2023-01-31T06:14:04;100584.50;;;14.69;56.31
23281;BME280;11809;56.390;-3.266;2023-01-31T06:16:32;100545.75;;;14.68;56.21
23281;BME280;11809;56.390;-3.266;2023-01-31T06:18:59;100551.16;;;14.66;56.13
23281;BME280;11809;56.390;-3.266;2023-01-31T06:21:26;100546.03;;;14.63;56.19
23281;BME280;11809;56.390;-3.266;2023-01-31T06:23:53;100557.25;;;14.67;55.85
23281;BME280;11809;56.390;-3.266;2023-01-31T06:26:20;100568.88;;;14.64;56.14
23281;BME280;11809;56.390;-3.266;2023-01-31T06:28:47;100580.81;;;14.71;55.41
23281;BME280;11809;56.390;-3.266;2023-01-31T06:31:14;100573.38;;;14.78;55.07
23281;BME280;11809;56.390;-3.266;2023-01-31T06:33:41;100569.50;;;14.83;55.24
23281;BME280;11809;56.390;-3.266;2023-01-31T06:36:13;100565.66;;;14.89;55.06
23281;BME280;11809;56.390;-3.266;2023-01-31T06:38:47;100567.19;;;14.93;54.97
23281;BME280;11809;56.390;-3.266;2023-01-31T06:41:14;100555.56;;;14.95;54.47
23281;BME280;11809;56.390;-3.266;2023-01-31T06:43:41;100555.56;;;14.95;54.30
23281;BME280;11809;56.390;-3.266;2023-01-31T06:46:08;100555.75;;;14.92;54.15
23281;BME280;11809;56.390;-3.266;2023-01-31T06:48:35;100566.50;;;14.89;53.69
23281;BME280;11809;56.390;-3.266;2023-01-31T06:51:02;100581.19;;;14.95;53.81
23281;BME280;11809;56.390;-3.266;2023-01-31T06:53:29;100593.38;;;14.97;53.83
23281;BME280;11809;56.390;-3.266;2023-01-31T06:55:56;100589.53;;;15.03;53.96
23281;BME280;11809;56.390;-3.266;2023-01-31T06:58:23;100608.03;;;15.03;54.40
23281;BME280;11809;56.390;-3.266;2023-01-31T07:00:50;100621.44;;;15.00;54.87
23281;BME280;11809;56.390;-3.266;2023-01-31T07:03:17;100637.50;;;14.97;55.02
23281;BME280;11809;56.390;-3.266;2023-01-31T07:05:45;100637.50;;;14.97;54.99
23281;BME280;11809;56.390;-3.266;2023-01-31T07:08:12;100660.41;;;14.98;55.14
23281;BME280;11809;56.390;-3.266;2023-01-31T07:10:40;100669.38;;;14.95;55.08
23281;BME280;11809;56.390;-3.266;2023-01-31T07:13:07;100663.97;;;14.97;54.43
23281;BME280;11809;56.390;-3.266;2023-01-31T07:15:34;100663.78;;;15.00;54.33
23281;BME280;11809;56.390;-3.266;2023-01-31T07:18:01;100689.59;;;14.81;51.21
23281;BME280;11809;56.390;-3.266;2023-01-31T07:20:28;100662.31;;;14.65;50.97
23281;BME280;11809;56.390;-3.266;2023-01-31T07:22:56;100658.28;;;14.73;52.86
23281;BME280;11809;56.390;-3.266;2023-01-31T07:25:24;100647.53;;;14.76;54.05
23281;BME280;11809;56.390;-3.266;2023-01-31T07:27:52;100663.25;;;14.79;54.01
23281;BME280;11809;56.390;-3.266;2023-01-31T07:30:19;100663.31;;;14.78;54.25
23281;BME280;11809;56.390;-3.266;2023-01-31T07:32:46;100677.50;;;14.77;54.59
23281;BME280;11809;56.390;-3.266;2023-01-31T07:35:13;100665.19;;;14.76;54.22
23281;BME280;11809;56.390;-3.266;2023-01-31T07:37:40;100678.53;;;14.74;54.23
23281;BME280;11809;56.390;-3.266;2023-01-31T07:40:10;100683.03;;;14.72;54.55
23281;BME280;11809;56.390;-3.266;2023-01-31T07:42:37;100673.41;;;14.71;54.53
23281;BME280;11809;56.390;-3.266;2023-01-31T07:45:08;100698.13;;;14.70;54.46
23281;BME280;11809;56.390;-3.266;2023-01-31T07:47:49;100698.31;;;14.67;54.62
23281;BME280;11809;56.390;-3.266;2023-01-31T07:50:16;100684.16;;;14.68;54.78
23281;BME280;11809;56.390;-3.266;2023-01-31T07:52:43;100691.34;;;14.66;54.77
23281;BME280;11809;56.390;-3.266;2023-01-31T07:55:10;100708.13;;;14.65;54.89
23281;BME280;11809;56.390;-3.266;2023-01-31T07:57:37;100704.72;;;14.63;54.79
23281;BME280;11809;56.390;-3.266;2023-01-31T08:00:06;100712.66;;;14.63;54.89
23281;BME280;11809;56.390;-3.266;2023-01-31T08:02:53;100719.81;;;14.61;55.03
23281;BME280;11809;56.390;-3.266;2023-01-31T08:05:39;100710.25;;;14.58;54.84
23281;BME280;11809;56.390;-3.266;2023-01-31T08:08:06;100698.06;;;14.56;55.14
23281;BME280;11809;56.390;-3.266;2023-01-31T08:10:36;100702.41;;;14.57;55.22
23281;BME280;11809;56.390;-3.266;2023-01-31T08:13:04;100703.34;;;14.56;55.12
23281;BME280;11809;56.390;-3.266;2023-01-31T08:15:32;100701.66;;;14.55;55.25
23281;BME280;11809;56.390;-3.266;2023-01-31T08:17:59;100719.31;;;14.54;55.17
23281;BME280;11809;56.390;-3.266;2023-01-31T08:20:28;100711.44;;;14.53;55.38
23281;BME280;11809;56.390;-3.266;2023-01-31T08:22:56;100711.28;;;14.56;54.95
23281;BME280;11809;56.390;-3.266;2023-01-31T08:25:26;100731.25;;;14.62;54.89
23281;BME280;11809;56.390;-3.266;2023-01-31T08:27:58;100723.41;;;14.60;54.79
23281;BME280;11809;56.390;-3.266;2023-01-31T08:30:27;100723.25;;;14.63;54.38
23281;BME280;11809;56.390;-3.266;2023-01-31T08:32:55;100732.03;;;14.64;54.63
23281;BME280;11809;56.390;-3.266;2023-01-31T08:35:24;100736.19;;;14.68;54.92
23281;BME280;11809;56.390;-3.266;2023-01-31T08:37:52;100751.81;;;14.72;54.95
23281;BME280;11809;56.390;-3.266;2023-01-31T08:40:32;100742.94;;;14.73;54.99
23281;BME280;11809;56.390;-3.266;2023-01-31T08:42:59;100736.72;;;14.74;55.07
23281;BME280;11809;56.390;-3.266;2023-01-31T08:45:28;100737.38;;;14.78;55.20
23281;BME280;11809;56.390;-3.266;2023-01-31T08:47:57;100721.34;;;14.81;54.86
23281;BME280;11809;56.390;-3.266;2023-01-31T08:50:28;100712.56;;;14.80;54.90
23281;BME280;11809;56.390;-3.266;2023-01-31T08:52:57;100719.47;;;14.83;54.97
23281;BME280;11809;56.390;-3.266;2023-01-31T08:55:26;100706.22;;;14.83;54.90
23281;BME280;11809;56.390;-3.266;2023-01-31T08:57:53;100722.09;;;14.83;54.84
23281;BME280;11809;56.390;-3.266;2023-01-31T09:00:25;100736.03;;;14.86;54.89
23281;BME280;11809;56.390;-3.266;2023-01-31T09:02:57;100753.63;;;14.87;54.75
23281;BME280;11809;56.390;-3.266;2023-01-31T09:05:27;100757.03;;;14.89;54.87
23281;BME280;11809;56.390;-3.266;2023-01-31T09:07:55;100770.09;;;14.92;54.64
23281;BME280;11809;56.390;-3.266;2023-01-31T09:10:22;100772.75;;;14.92;54.73
23281;BME280;11809;56.390;-3.266;2023-01-31T09:12:50;100777.06;;;14.93;54.91
23281;BME280;11809;56.390;-3.266;2023-01-31T09:15:17;100769.81;;;14.97;54.83
23281;BME280;11809;56.390;-3.266;2023-01-31T09:17:45;100776.72;;;14.99;54.57
23281;BME280;11809;56.390;-3.266;2023-01-31T09:20:12;100791.31;;;15.06;54.54
23281;BME280;11809;56.390;-3.266;2023-01-31T09:22:39;100789.47;;;15.08;54.64
23281;BME280;11809;56.390;-3.266;2023-01-31T09:25:06;100797.25;;;15.11;54.62
23281;BME280;11809;56.390;-3.266;2023-01-31T09:27:35;100794.38;;;15.14;54.59
23281;BME280;11809;56.390;-3.266;2023-01-31T09:30:05;100804.81;;;15.17;53.69
23281;BME280;11809;56.390;-3.266;2023-01-31T09:32:32;100810.88;;;15.19;54.27
23281;BME280;11809;56.390;-3.266;2023-01-31T09:34:59;100812.69;;;15.19;54.75
23281;BME280;11809;56.390;-3.266;2023-01-31T09:37:29;100812.59;;;15.21;54.42
23281;BME280;11809;56.390;-3.266;2023-01-31T09:39:57;100817.97;;;15.19;54.65
23281;BME280;11809;56.390;-3.266;2023-01-31T09:42:28;100807.13;;;15.24;54.63
23281;BME280;11809;56.390;-3.266;2023-01-31T09:45:06;100806.19;;;15.25;54.53
23281;BME280;11809;56.390;-3.266;2023-01-31T09:47:39;100808.75;;;15.26;54.51
23281;BME280;11809;56.390;-3.266;2023-01-31T09:50:27;100814.78;;;15.28;54.90
23281;BME280;11809;56.390;-3.266;2023-01-31T09:52:56;100826.06;;;15.32;54.88
23281;BME280;11809;56.390;-3.266;2023-01-31T09:55:35;100823.44;;;15.32;54.52
23281;BME280;11809;56.390;-3.266;2023-01-31T09:58:12;100825.97;;;15.33;54.21
23281;BME280;11809;56.390;-3.266;2023-01-31T10:00:47;100824.13;;;15.35;54.65
23281;BME280;11809;56.390;-3.266;2023-01-31T10:08:58;100826.34;;;15.27;54.20
23281;BME280;11809;56.390;-3.266;2023-01-31T10:11:39;100829.06;;;15.26;53.17
23281;BME280;11809;56.390;-3.266;2023-01-31T10:17:22;100834.28;;;15.27;54.07
23281;BME280;11809;56.390;-3.266;2023-01-31T10:20:09;100816.69;;;15.26;54.00
23281;BME280;11809;56.390;-3.266;2023-01-31T10:22:46;100823.19;;;15.21;53.97
23281;BME280;11809;56.390;-3.266;2023-01-31T10:25:24;100811.13;;;15.15;54.12
23281;BME280;11809;56.390;-3.266;2023-01-31T10:28:12;100821.06;;;15.11;53.79
23281;BME280;11809;56.390;-3.266;2023-01-31T10:36:42;100840.78;;;15.06;54.37
23281;BME280;11809;56.390;-3.266;2023-01-31T10:47:40;100859.13;;;15.09;54.36
23281;BME280;11809;56.390;-3.266;2023-01-31T10:50:18;100845.97;;;15.07;54.44
23281;BME280;11809;56.390;-3.266;2023-01-31T10:56:08;100857.59;;;15.21;54.78
23281;BME280;11809;56.390;-3.266;2023-01-31T10:58:37;100864.25;;;15.28;54.53
23281;BME280;11809;56.390;-3.266;2023-01-31T11:01:05;100848.13;;;15.32;54.54
23281;BME280;11809;56.390;-3.266;2023-01-31T11:03:48;100845.09;;;15.38;54.43
23281;BME280;11809;56.390;-3.266;2023-01-31T11:06:16;100836.78;;;15.46;54.24
23281;BME280;11809;56.390;-3.266;2023-01-31T11:11:26;100864.09;;;15.62;54.00
23281;BME280;11809;56.390;-3.266;2023-01-31T11:13:59;100852.25;;;15.67;54.20
23281;BME280;11809;56.390;-3.266;2023-01-31T11:16:29;100837.63;;;15.76;53.68
23281;BME280;11809;56.390;-3.266;2023-01-31T11:19:00;100833.78;;;15.82;53.61
23281;BME280;11809;56.390;-3.266;2023-01-31T11:21:31;100831.88;;;15.84;52.96
23281;BME280;11809;56.390;-3.266;2023-01-31T11:24:04;100843.75;;;15.92;53.34
23281;BME280;11809;56.390;-3.266;2023-01-31T11:26:38;100848.81;;;15.97;53.53
23281;BME280;11809;56.390;-3.266;2023-01-31T11:29:09;100846.72;;;16.02;53.57
23281;BME280;11809;56.390;-3.266;2023-01-31T11:31:43;100851.81;;;16.05;53.47
23281;BME280;11809;56.390;-3.266;2023-01-31T11:34:18;100844.38;;;16.11;53.13
23281;BME280;11809;56.390;-3.266;2023-01-31T11:36:46;100860.97;;;16.15;53.10
23281;BME280;11809;56.390;-3.266;2023-01-31T11:39:33;100842.13;;;16.19;52.76
23281;BME280;11809;56.390;-3.266;2023-01-31T11:42:12;100831.41;;;16.21;52.59
23281;BME280;11809;56.390;-3.266;2023-01-31T11:45:00;100856.63;;;16.28;52.49
23281;BME280;11809;56.390;-3.266;2023-01-31T11:47:50;100867.81;;;16.33;52.36
23281;BME280;11809;56.390;-3.266;2023-01-31T11:50:21;100847.63;;;16.30;51.25
23281;BME280;11809;56.390;-3.266;2023-01-31T11:52:55;100837.66;;;16.34;51.38
23281;BME280;11809;56.390;-3.266;2023-01-31T11:55:23;100850.75;;;16.37;51.86
23281;BME280;11809;56.390;-3.266;2023-01-31T11:57:58;100834.06;;;16.35;51.60
23281;BME280;11809;56.390;-3.266;2023-01-31T12:00:30;100847.81;;;16.27;51.15
23281;BME280;11809;56.390;-3.266;2023-01-31T12:03:05;100874.56;;;16.09;50.44
23281;BME280;11809;56.390;-3.266;2023-01-31T12:05:43;100861.09;;;15.98;51.19
23281;BME280;11809;56.390;-3.266;2023-01-31T12:08:30;100876.50;;;15.91;51.23
23281;BME280;11809;56.390;-3.266;2023-01-31T12:11:03;100875.06;;;15.86;51.33
23281;BME280;11809;56.390;-3.266;2023-01-31T12:13:30;100877.03;;;15.82;51.40
23281;BME280;11809;56.390;-3.266;2023-01-31T12:16:01;100867.38;;;15.81;51.47
23281;BME280;11809;56.390;-3.266;2023-01-31T12:26:51;100826.09;;;15.77;51.74
23281;BME280;11809;56.390;-3.266;2023-01-31T12:29:47;100840.13;;;15.79;51.60
23281;BME280;11809;56.390;-3.266;2023-01-31T12:44:03;100788.31;;;16.17;51.19
23281;BME280;11809;56.390;-3.266;2023-01-31T12:47:07;100798.34;;;16.26;51.85
23281;BME280;11809;56.390;-3.266;2023-01-31T12:55:19;100796.47;;;16.43;52.03
23281;BME280;11809;56.390;-3.266;2023-01-31T12:58:27;100799.59;;;16.49;51.71
23281;BME280;11809;56.390;-3.266;2023-01-31T13:01:04;100788.53;;;16.57;51.61
23281;BME280;11809;56.390;-3.266;2023-01-31T13:03:49;100790.16;;;16.59;51.68
23281;BME280;11809;56.390;-3.266;2023-01-31T13:06:29;100810.22;;;16.63;51.00
23281;BME280;11809;56.390;-3.266;2023-01-31T13:09:05;100811.88;;;16.66;51.38
23281;BME280;11809;56.390;-3.266;2023-01-31T13:11:42;100812.44;;;16.71;51.33
23281;BME280;11809;56.390;-3.266;2023-01-31T13:14:18;100825.41;;;16.75;51.27
23281;BME280;11809;56.390;-3.266;2023-01-31T13:16:50;100825.28;;;16.77;51.25
23281;BME280;11809;56.390;-3.266;2023-01-31T13:22:02;100821.59;;;16.79;51.24
23281;BME280;11809;56.390;-3.266;2023-01-31T13:24:35;100816.00;;;16.84;51.18
23281;BME280;11809;56.390;-3.266;2023-01-31T13:27:13;100828.97;;;16.88;51.22
23281;BME280;11809;56.390;-3.266;2023-01-31T13:29:46;100828.97;;;16.88;50.89
23281;BME280;11809;56.390;-3.266;2023-01-31T13:32:27;100826.88;;;16.93;50.97
23281;BME280;11809;56.390;-3.266;2023-01-31T13:35:16;100817.78;;;16.98;50.83
23281;BME280;11809;56.390;-3.266;2023-01-31T13:37:48;100830.97;;;16.99;50.82
23281;BME280;11809;56.390;-3.266;2023-01-31T13:40:29;100832.47;;;17.03;50.74
23281;BME280;11809;56.390;-3.266;2023-01-31T13:43:04;100839.47;;;17.04;50.75
23281;BME280;11809;56.390;-3.266;2023-01-31T13:45:41;100829.72;;;17.05;50.28
23281;BME280;11809;56.390;-3.266;2023-01-31T13:48:26;100829.81;;;17.03;49.64
23281;BME280;11809;56.390;-3.266;2023-01-31T13:53:41;100831.50;;;17.04;50.35
23281;BME280;11809;56.390;-3.266;2023-01-31T13:56:21;100821.84;;;17.03;50.70
23281;BME280;11809;56.390;-3.266;2023-01-31T13:58:50;100826.13;;;17.06;50.81
23281;BME280;11809;56.390;-3.266;2023-01-31T14:01:42;100825.25;;;17.05;50.79
23281;BME280;11809;56.390;-3.266;2023-01-31T14:09:27;100822.41;;;17.08;50.41
23281;BME280;11809;56.390;-3.266;2023-01-31T14:12:01;100828.34;;;17.12;50.29
23281;BME280;11809;56.390;-3.266;2023-01-31T14:14:52;100814.22;;;17.11;49.64
23281;BME280;11809;56.390;-3.266;2023-01-31T14:22:26;100799.63;;;17.18;48.93
23281;BME280;11809;56.390;-3.266;2023-01-31T14:25:03;100792.19;;;17.23;50.03
23281;BME280;11809;56.390;-3.266;2023-01-31T14:32:42;100817.13;;;17.35;49.83
23281;BME280;11809;56.390;-3.266;2023-01-31T14:38:06;100835.28;;;17.41;49.91
23281;BME280;11809;56.390;-3.266;2023-01-31T14:57:56;100835.03;;;17.45;48.36
23281;BME280;11809;56.390;-3.266;2023-01-31T15:00:36;100837.56;;;17.47;48.30
23281;BME280;11809;56.390;-3.266;2023-01-31T15:06:06;100838.41;;;17.47;48.38
23281;BME280;11809;56.390;-3.266;2023-01-31T15:08:46;100843.00;;;17.45;48.53
23281;BME280;11809;56.390;-3.266;2023-01-31T15:11:40;100852.66;;;17.46;48.44
23281;BME280;11809;56.390;-3.266;2023-01-31T15:17:16;100841.16;;;17.46;48.10